Time;durP1;ratioP1;P1;durP2;ratioP2;P2;SDS_P1;SDS_P2;PMS_P1;PMS_P2;Temp;Humidity;BMP_temperature;BMP_pressure;BME280_temperature;BME280_humidity;BME280_pressure;Samples;Min_cycle;Max_cycle;Signal;HPM_P1;HPM_P2
2022/08/22 00:02:12;;;;;;;10.18;6.15;;;;;;;24.23;66.83;98794.91;5052821;28;20044;-37
2022/08/22 00:04:55;;;;;;;9.18;6.30;;;;;;;24.37;67.58;98784.69;5052688;28;20628;-37
2022/08/22 00:07:39;;;;;;;10.35;6.30;;;;;;;24.79;65.84;98801.38;5053132;28;20502;-37
2022/08/22 00:10:13;;;;;;;11.85;6.47;;;;;;;24.68;66.18;98805.53;5052794;28;20202;-37
2022/08/22 00:13:00;;;;;;;10.98;6.10;;;;;;;24.26;67.62;98810.59;5052953;28;20116;-38
2022/08/22 00:15:58;;;;;;;10.88;5.60;;;;;;;24.32;67.11;98806.59;5052166;28;20106;-37
2022/08/22 00:18:34;;;;;;;8.45;6.13;;;;;;;24.37;66.96;98801.00;5052554;28;20090;-37
2022/08/22 00:21:12;;;;;;;9.77;6.47;;;;;;;24.94;64.85;98814.50;5052383;28;20044;-37
2022/08/22 00:24:02;;;;;;;9.15;5.70;;;;;;;24.53;65.79;98813.03;5052542;28;20111;-37
2022/08/22 00:26:38;;;;;;;8.27;5.88;;;;;;;24.27;66.74;98821.13;5052185;28;20033;-37
2022/08/22 00:29:10;;;;;;;7.50;5.90;;;;;;;24.20;66.78;98818.09;5052727;28;20032;-37
2022/08/22 00:31:42;;;;;;;9.70;5.63;;;;;;;24.31;65.86;98819.41;5052316;28;20028;-37
2022/08/22 00:34:21;;;;;;;10.38;5.72;;;;;;;25.06;62.38;98810.31;5051705;28;20036;-38
2022/08/22 00:37:05;;;;;;;8.95;5.68;;;;;;;24.34;65.50;98818.75;5052219;28;20025;-37
2022/08/22 00:39:42;;;;;;;9.82;5.80;;;;;;;24.04;67.01;98814.19;5052143;28;20497;-37
2022/08/22 00:42:23;;;;;;;8.32;5.70;;;;;;;24.07;67.67;98824.44;5052161;28;20092;-35
2022/08/22 00:45:39;;;;;;;8.98;5.55;;;;;;;24.59;65.74;98816.41;5052303;28;20096;-36
2022/08/22 00:48:19;;;;;;;9.70;6.00;;;;;;;24.45;65.86;98811.09;5009363;28;20045;-36
2022/08/22 00:51:06;;;;;;;10.48;5.90;;;;;;;24.24;66.37;98808.19;5008541;28;20584;-36
2022/08/22 00:53:47;;;;;;;7.05;5.30;;;;;;;24.15;66.96;98813.59;5043193;28;20044;-36
2022/08/22 00:57:07;;;;;;;11.07;6.00;;;;;;;24.15;67.41;98810.06;5051691;28;20326;-36
2022/08/22 01:00:02;;;;;;;8.90;5.93;;;;;;;24.94;63.88;98811.78;5029199;28;20136;-36
2022/08/22 01:02:49;;;;;;;8.60;6.40;;;;;;;24.21;66.83;98808.81;5051987;28;20056;-36
2022/08/22 01:05:45;;;;;;;7.13;5.65;;;;;;;24.03;67.78;98799.00;5051744;28;20043;-37
2022/08/22 01:08:20;;;;;;;10.35;6.32;;;;;;;24.11;67.71;98793.59;5051418;28;20099;-36
2022/08/22 01:11:04;;;;;;;11.25;6.30;;;;;;;24.27;67.03;98804.81;5051478;28;20028;-37
2022/08/22 01:13:55;;;;;;;12.23;6.00;;;;;;;25.01;63.91;98805.84;5051406;28;20028;-37
2022/08/22 01:16:50;;;;;;;8.68;5.70;;;;;;;24.86;65.19;98807.13;5051352;28;20084;-37
2022/08/22 01:19:22;;;;;;;10.95;5.70;;;;;;;24.07;67.46;98814.38;5051395;28;20029;-36
2022/08/22 01:21:47;;;;;;;9.43;6.07;;;;;;;23.93;68.62;98822.66;5051350;28;20029;-36
2022/08/22 01:24:35;;;;;;;10.38;5.90;;;;;;;23.95;68.61;98825.84;5051318;28;20102;-37
2022/08/22 01:27:40;;;;;;;8.80;5.93;;;;;;;24.45;66.64;98818.44;5048076;28;20128;-37
2022/08/22 01:30:17;;;;;;;8.45;5.93;;;;;;;24.31;66.35;98813.97;5050871;28;20024;-36
2022/08/22 01:33:08;;;;;;;9.15;5.80;;;;;;;24.01;67.49;98821.06;5051157;28;20025;-36
2022/08/22 01:36:10;;;;;;;9.82;5.80;;;;;;;23.87;67.04;98820.38;5051188;28;20066;-37
2022/08/22 01:39:04;;;;;;;6.68;5.97;;;;;;;24.11;66.24;98817.25;5058880;28;20021;-37
2022/08/22 01:41:48;;;;;;;10.20;6.15;;;;;;;24.59;64.44;98809.03;5070820;28;20119;-37
2022/08/22 01:44:48;;;;;;;9.00;6.15;;;;;;;23.96;67.16;98807.63;5070709;28;20036;-37
2022/08/22 01:47:24;;;;;;;9.45;6.03;;;;;;;23.86;68.08;98805.19;5057366;28;20040;-37
2022/08/22 01:50:01;;;;;;;8.95;6.35;;;;;;;23.97;67.21;98812.75;5070566;28;20036;-37
2022/08/22 01:52:32;;;;;;;9.48;6.57;;;;;;;23.95;66.95;98812.25;5070868;28;20024;-37
2022/08/22 01:55:05;;;;;;;10.55;6.47;;;;;;;24.57;64.28;98805.84;5070476;28;20476;-37
2022/08/22 01:57:31;;;;;;;8.90;6.63;;;;;;;23.77;67.97;98813.28;5070837;28;20387;-37
2022/08/22 02:00:06;;;;;;;12.05;6.50;;;;;;;23.63;68.50;98818.81;5070549;28;20029;-37
2022/08/22 02:02:40;;;;;;;12.63;6.43;;;;;;;23.61;68.93;98826.47;5070159;28;20032;-40
2022/08/22 02:05:20;;;;;;;10.15;6.60;;;;;;;23.61;68.38;98829.97;5070658;28;20033;-37
2022/08/22 02:08:17;;;;;;;11.02;6.45;;;;;;;23.95;67.39;98825.84;5070480;28;20024;-35
2022/08/22 02:10:55;;;;;;;9.27;6.30;;;;;;;23.45;70.24;98828.75;5070434;28;20117;-38
2022/08/22 02:14:05;;;;;;;11.30;7.03;;;;;;;23.42;70.82;98829.41;5070746;28;20020;-38
2022/08/22 02:16:40;;;;;;;9.43;6.43;;;;;;;23.53;70.41;98836.19;5028789;28;20458;-36
2022/08/22 02:19:14;;;;;;;9.52;6.53;;;;;;;24.10;68.14;98840.09;5027985;28;20033;-37
2022/08/22 02:21:56;;;;;;;12.02;6.47;;;;;;;23.95;68.44;98820.41;5055332;28;20135;-37
2022/08/22 02:24:46;;;;;;;10.13;6.93;;;;;;;23.69;69.36;98843.91;5070673;28;20032;-37
2022/08/22 02:27:30;;;;;;;9.60;6.82;;;;;;;23.66;69.38;98837.19;5070923;28;20032;-37
2022/08/22 02:30:06;;;;;;;9.98;6.53;;;;;;;23.72;69.09;98830.53;5071004;28;20036;-37
2022/08/22 02:32:40;;;;;;;13.10;6.70;;;;;;;24.05;67.92;98832.91;5070533;28;20026;-37
2022/08/22 02:35:21;;;;;;;9.32;6.70;;;;;;;24.26;67.02;98827.69;5070596;28;20028;-37
2022/08/22 02:38:06;;;;;;;12.68;6.57;;;;;;;23.86;68.78;98832.38;5056764;28;20498;-37
2022/08/22 02:40:50;;;;;;;14.18;6.95;;;;;;;23.57;70.20;98825.47;5050551;28;20163;-37
2022/08/22 02:43:28;;;;;;;11.90;6.72;;;;;;;23.65;69.71;98832.09;5050286;28;20253;-37
2022/08/22 02:46:10;;;;;;;10.80;6.65;;;;;;;23.84;68.67;98831.84;5050048;28;20053;-37
2022/08/22 02:48:56;;;;;;;16.27;7.43;;;;;;;24.31;66.82;98827.53;5050750;28;20107;-37
2022/08/22 02:51:46;;;;;;;12.27;6.78;;;;;;;23.69;69.73;98835.78;5050224;28;20045;-37
2022/08/22 02:54:26;;;;;;;9.43;6.47;;;;;;;23.65;69.78;98830.16;5049735;28;20104;-37
2022/08/22 02:57:15;;;;;;;;;;;;;;;23.79;68.96;98838.22;5050853;28;20107;-38
2022/08/22 03:00:15;;;;;;;16.40;6.60;;;;;;;24.23;67.35;98838.38;5050495;28;19970;-37
2022/08/22 03:02:44;;;;;;;12.30;7.00;;;;;;;23.96;68.09;98843.72;5050125;28;20035;-37
2022/08/22 03:05:44;;;;;;;9.20;6.83;;;;;;;23.69;69.54;98842.00;5050062;28;20131;-38
2022/08/22 03:08:20;;;;;;;12.48;7.43;;;;;;;23.77;68.07;98851.28;5050219;28;20746;-37
2022/08/22 03:11:14;;;;;;;13.30;7.38;;;;;;;23.73;68.03;98848.41;5049987;28;20025;-37
2022/08/22 03:14:27;;;;;;;10.23;6.97;;;;;;;24.48;65.58;98845.78;5045656;28;20097;-37
2022/08/22 03:17:09;;;;;;;10.55;6.78;;;;;;;23.78;68.04;98848.31;5040022;28;20045;-38
2022/08/22 03:19:57;;;;;;;16.75;12.23;;;;;;;23.68;68.24;98845.81;5049853;28;20107;-38
2022/08/22 03:22:48;;;;;;;9.30;6.97;;;;;;;23.45;70.14;98849.69;5049833;28;20086;-37
2022/08/22 03:25:33;;;;;;;16.45;8.35;;;;;;;23.05;72.13;98844.16;5049502;28;20485;-37
2022/08/22 03:28:09;;;;;;;15.70;8.38;;;;;;;23.70;69.09;98848.22;5049708;28;20033;-35
2022/08/22 03:30:55;;;;;;;17.23;7.78;;;;;;;23.07;72.31;98848.16;5050003;28;20461;-36
2022/08/22 03:33:22;;;;;;;13.73;7.55;;;;;;;23.08;72.08;98843.56;5049996;28;20032;-35
2022/08/22 03:35:51;;;;;;;10.57;7.32;;;;;;;23.01;72.39;98852.06;5049644;28;20017;-36
2022/08/22 03:38:30;;;;;;;10.43;7.20;;;;;;;22.72;73.55;98852.47;5049373;28;20056;-37
2022/08/22 03:41:14;;;;;;;12.25;7.72;;;;;;;23.30;68.57;98845.44;5049134;28;20025;-37
2022/08/22 03:43:45;;;;;;;12.60;7.22;;;;;;;22.74;71.92;98840.22;5049153;28;20032;-37
2022/08/22 03:46:39;;;;;;;12.05;7.22;;;;;;;22.62;73.51;98843.47;5048870;28;20476;-37
2022/08/22 03:49:20;;;;;;;11.68;7.82;;;;;;;22.62;73.94;98848.88;5048584;28;20219;-37
2022/08/22 03:52:06;;;;;;;17.27;8.30;;;;;;;23.26;70.54;98858.81;5049319;28;20035;-37
2022/08/22 03:54:55;;;;;;;9.65;6.88;;;;;;;23.11;68.43;98859.19;5048838;28;20057;-35
2022/08/22 03:57:23;;;;;;;13.20;8.02;;;;;;;22.62;73.38;98856.22;5041527;28;20032;-35
2022/08/22 04:00:08;;;;;;;7.10;6.28;;;;;;;22.42;72.02;98862.88;5048507;28;20033;-37
2022/08/22 04:02:46;;;;;;;10.95;7.35;;;;;;;22.66;73.03;98859.91;5048276;28;20103;-37
2022/08/22 04:05:47;;;;;;;12.23;7.15;;;;;;;23.07;71.49;98861.72;5048491;28;20032;-37
2022/08/22 04:08:12;;;;;;;12.02;7.25;;;;;;;23.23;70.97;98867.59;5048655;28;20507;-38
2022/08/22 04:11:11;;;;;;;11.18;7.32;;;;;;;22.95;72.35;98864.16;5048611;28;20034;-37
2022/08/22 04:13:48;;;;;;;12.40;8.13;;;;;;;22.93;72.40;98864.47;5048760;28;20358;-36
2022/08/22 04:16:38;;;;;;;16.35;7.70;;;;;;;22.97;72.37;98870.06;5046593;28;20053;-36
2022/08/22 04:19:15;;;;;;;10.45;8.13;;;;;;;23.30;70.98;98878.81;5037354;28;20025;-35
2022/08/22 04:21:59;;;;;;;18.88;14.20;;;;;;;23.51;70.49;98873.66;5028844;28;20041;-35
2022/08/22 04:25:04;;;;;;;16.00;11.25;;;;;;;23.15;71.95;98871.84;5028822;28;20038;-37
2022/08/22 04:27:32;;;;;;;13.55;7.72;;;;;;;23.14;72.04;98875.66;5033769;28;20032;-37
2022/08/22 04:30:30;;;;;;;13.57;7.72;;;;;;;23.48;70.95;98870.81;5032223;28;20557;-37
2022/08/22 04:32:59;;;;;;;9.07;7.22;;;;;;;23.87;69.19;98871.97;5047428;28;20090;-35
2022/08/22 04:35:40;;;;;;;14.38;7.78;;;;;;;24.54;66.64;98873.66;5052933;28;20032;-36
2022/08/22 04:38:19;;;;;;;17.83;8.38;;;;;;;24.25;67.03;98875.00;5052228;28;20032;-36
2022/08/22 04:40:56;;;;;;;13.07;8.20;;;;;;;23.94;68.86;98875.84;5051081;28;20101;-36
2022/08/22 04:43:42;;;;;;;12.45;8.18;;;;;;;24.10;68.27;98875.44;5050035;28;20412;-37
2022/08/22 04:46:30;;;;;;;14.63;8.40;;;;;;;24.03;67.66;98885.94;5050355;28;20061;-37
2022/08/22 04:49:04;;;;;;;15.30;9.05;;;;;;;24.91;64.51;98876.91;5050456;28;20037;-37
2022/08/22 04:52:09;;;;;;;15.20;7.95;;;;;;;24.29;66.51;98883.31;5049749;28;20029;-37
2022/08/22 04:54:46;;;;;;;13.10;8.00;;;;;;;24.61;65.76;98882.16;5050851;28;20143;-37
2022/08/22 04:57:33;;;;;;;12.52;7.15;;;;;;;25.11;63.44;98880.91;5051469;28;20115;-37
2022/08/22 05:00:07;;;;;;;14.80;7.63;;;;;;;25.43;61.84;98878.81;5051101;28;20386;-37
2022/08/22 05:02:36;;;;;;;13.00;7.63;;;;;;;26.28;58.63;98886.28;5050842;28;20485;-37
2022/08/22 05:05:16;;;;;;;10.98;7.50;;;;;;;25.83;60.50;98887.53;5051041;28;20134;-37
2022/08/22 05:07:47;;;;;;;;;;;;;;;26.15;59.93;98893.53;5051454;28;20033;-37
2022/08/22 05:10:18;;;;;;;9.90;7.18;;;;;;;26.42;58.93;98910.56;5051772;28;20387;-38
2022/08/22 05:13:10;;;;;;;9.40;7.00;;;;;;;27.07;56.25;98908.41;5051360;28;20106;-38
2022/08/22 05:15:46;;;;;;;14.23;7.53;;;;;;;27.91;53.92;98911.00;5049706;28;20049;-36
2022/08/22 05:18:18;;;;;;;12.52;7.97;;;;;;;27.53;54.94;98919.44;5051375;28;20029;-37
2022/08/22 05:20:48;;;;;;;17.98;10.50;;;;;;;27.45;55.37;98905.50;5051311;28;20033;-38
2022/08/22 05:23:23;;;;;;;13.85;8.85;;;;;;;27.72;55.03;98916.19;5051014;28;20033;-45
2022/08/22 05:25:52;;;;;;;12.68;6.88;;;;;;;28.03;53.93;98929.41;5051444;28;20036;-46
2022/08/22 05:28:37;;;;;;;11.85;6.50;;;;;;;29.20;51.21;98926.00;5051554;28;20028;-43
2022/08/22 05:31:09;;;;;;;11.95;6.90;;;;;;;28.78;51.24;98923.59;5051125;28;20029;-44
2022/08/22 05:33:55;;;;;;;13.32;8.00;;;;;;;28.78;51.01;98926.31;5051470;28;20086;-44
2022/08/22 05:36:25;;;;;;;17.40;9.40;;;;;;;28.83;51.29;98928.81;5051388;28;20154;-43
2022/08/22 05:38:57;;;;;;;10.35;6.35;;;;;;;28.89;50.07;98925.88;5051550;28;20120;-43
2022/08/22 05:41:26;;;;;;;12.38;5.97;;;;;;;30.10;48.25;98933.13;5051723;28;20028;-46
2022/08/22 05:43:52;;;;;;;;;;;;;;;29.88;47.83;98931.78;5051899;28;20025;-43
2022/08/22 05:46:44;;;;;;;8.70;5.50;;;;;;;29.17;49.34;98929.47;5051277;28;20011;-44
2022/08/22 05:49:21;;;;;;;10.27;5.40;;;;;;;29.46;48.69;98930.25;5051445;28;20086;-42
2022/08/22 05:51:59;;;;;;;8.77;5.68;;;;;;;29.75;47.93;98934.59;5051550;28;20087;-36
2022/08/22 05:54:32;;;;;;;11.60;9.53;;;;;;;30.73;44.81;98938.59;5051394;28;20028;-43
2022/08/22 05:57:19;;;;;;;12.35;7.00;;;;;;;30.29;46.20;98943.38;5050916;28;20552;-44
2022/08/22 05:59:51;;;;;;;11.50;5.30;;;;;;;30.34;46.12;98943.16;5051320;28;20040;-43
2022/08/22 06:02:22;;;;;;;10.95;5.40;;;;;;;30.51;45.58;98931.78;5051421;28;20072;-44
2022/08/22 06:04:53;;;;;;;8.65;5.68;;;;;;;30.79;45.18;98937.13;5051311;28;20036;-43
2022/08/22 06:07:27;;;;;;;8.95;5.00;;;;;;;31.48;44.08;98933.13;5050921;28;20432;-45
2022/08/22 06:10:15;;;;;;;10.27;5.72;;;;;;;31.40;43.67;98934.91;5051035;28;20025;-43
2022/08/22 06:12:49;;;;;;;8.68;5.50;;;;;;;31.50;43.21;98930.81;5051489;28;20119;-43
2022/08/22 06:15:33;;;;;;;10.25;5.35;;;;;;;31.70;43.32;98926.06;5050957;28;20049;-43
2022/08/22 06:18:04;;;;;;;8.05;5.28;;;;;;;32.12;41.89;98928.81;5050704;28;20028;-43
2022/08/22 06:20:38;;;;;;;8.63;5.43;;;;;;;32.35;40.95;98933.50;5050432;28;20126;-45
2022/08/22 06:23:06;;;;;;;6.20;4.60;;;;;;;32.27;40.58;98934.53;5050299;28;20024;-45
2022/08/22 06:25:36;;;;;;;6.93;4.47;;;;;;;32.16;41.24;98928.84;5050116;28;20029;-43
2022/08/22 06:28:07;;;;;;;11.32;5.78;;;;;;;32.11;40.85;98940.94;5049747;28;20039;-44
2022/08/22 06:30:34;;;;;;;10.02;5.40;;;;;;;32.85;39.63;98949.97;5050202;28;20500;-44
2022/08/22 06:33:08;;;;;;;13.85;5.38;;;;;;;32.16;40.54;98939.88;5048758;28;20404;-43
2022/08/22 06:38:33;;;;;;;11.63;6.10;;;;;;;32.08;41.81;98941.72;5057500;28;20039;-43
2022/08/22 06:41:05;;;;;;;11.77;7.13;;;;;;;33.13;39.50;98943.28;5051090;28;20086;-47
2022/08/22 06:43:37;;;;;;;18.38;13.90;;;;;;;32.71;40.44;98945.03;5050145;28;20044;-43
2022/08/22 06:46:05;;;;;;;10.07;6.57;;;;;;;32.44;40.42;98942.25;5049655;28;20035;-46
2022/08/22 06:48:32;;;;;;;9.63;5.18;;;;;;;32.33;40.96;98944.84;5049038;28;20029;-43
2022/08/22 06:50:59;;;;;;;7.40;4.88;;;;;;;32.97;39.43;98946.97;5049676;28;20321;-45
2022/08/22 06:53:57;;;;;;;8.10;5.43;;;;;;;32.52;40.11;98937.69;5049297;28;20346;-45
2022/08/22 06:56:28;;;;;;;5.93;5.07;;;;;;;32.71;39.77;98940.34;5037758;28;20042;-45
2022/08/22 06:58:57;;;;;;;10.20;5.47;;;;;;;33.14;39.04;98945.66;5049736;28;20100;-45
2022/08/22 07:01:29;;;;;;;11.88;5.63;;;;;;;33.36;39.39;98949.47;5050023;28;20024;-43
2022/08/22 07:04:03;;;;;;;9.80;5.40;;;;;;;33.25;38.53;98946.59;5049580;28;20110;-42
2022/08/22 07:06:35;;;;;;;10.38;5.30;;;;;;;33.13;38.60;98949.59;5049953;28;20053;-43
2022/08/22 07:09:02;;;;;;;11.43;6.03;;;;;;;33.26;39.09;98956.47;5049513;28;20025;-45
2022/08/22 07:11:31;;;;;;;16.75;13.00;;;;;;;33.92;37.53;98944.97;5049243;28;20025;-44
2022/08/22 07:14:01;;;;;;;8.45;6.10;;;;;;;33.48;38.48;98960.25;5049323;28;20035;-47
2022/08/22 07:16:44;;;;;;;6.00;5.40;;;;;;;33.07;38.87;98953.81;5049109;28;20416;-44
2022/08/22 07:19:32;;;;;;;14.45;6.40;;;;;;;32.69;39.29;98953.69;5049057;28;20051;-43
2022/08/22 07:22:08;;;;;;;12.15;6.25;;;;;;;33.27;38.75;98952.50;5048450;28;20060;-43
2022/08/22 07:24:35;;;;;;;10.13;5.80;;;;;;;33.30;39.36;98953.72;5049247;28;20078;-46
2022/08/22 07:27:17;;;;;;;9.77;5.55;;;;;;;32.94;39.18;98945.00;5049033;28;20112;-45
2022/08/22 07:30:16;;;;;;;8.98;5.47;;;;;;;32.76;40.67;98953.00;5049241;28;20036;-43
2022/08/22 07:32:54;;;;;;;12.10;6.50;;;;;;;33.04;39.60;98941.56;5037123;28;20506;-45
2022/08/22 07:35:34;;;;;;;9.85;6.63;;;;;;;32.89;39.54;98948.84;5049168;28;20033;-44
2022/08/22 07:38:14;;;;;;;9.23;7.25;;;;;;;32.63;39.48;98946.13;5052977;28;20088;-44
2022/08/22 07:41:10;;;;;;;9.95;6.53;;;;;;;32.33;39.67;98947.63;5069204;28;20472;-44
2022/08/22 07:43:41;;;;;;;7.40;5.88;;;;;;;32.73;39.07;98948.25;5069279;28;20040;-47
2022/08/22 07:46:15;;;;;;;7.85;5.82;;;;;;;31.80;40.62;98952.97;5069084;28;20400;-43
2022/08/22 07:48:49;;;;;;;9.27;5.55;;;;;;;31.92;40.41;98954.75;5069120;28;20032;-44
2022/08/22 07:51:17;;;;;;;10.27;5.25;;;;;;;32.21;39.96;98949.75;5069171;28;20100;-45
2022/08/22 07:54:05;;;;;;;8.38;5.63;;;;;;;32.52;39.32;98955.00;5069133;28;20024;-46
2022/08/22 07:56:36;;;;;;;9.88;5.55;;;;;;;33.14;38.14;98944.88;5069382;28;20173;-43
2022/08/22 07:59:10;;;;;;;16.15;6.50;;;;;;;32.82;38.97;98954.25;5070433;28;20074;-44
2022/08/22 08:01:38;;;;;;;8.85;6.22;;;;;;;32.09;39.72;98951.53;5072407;28;20024;-45
2022/08/22 08:04:11;;;;;;;9.70;6.40;;;;;;;32.08;40.17;98940.88;5071223;28;20017;-45
2022/08/22 08:06:37;;;;;;;11.98;6.45;;;;;;;32.14;39.86;98951.22;5071124;28;20070;-44
2022/08/22 08:09:03;;;;;;;10.27;6.32;;;;;;;32.45;39.48;98943.06;5070870;28;20048;-46
2022/08/22 08:11:34;;;;;;;14.95;6.90;;;;;;;32.35;39.77;98944.50;5072224;28;20044;-46
2022/08/22 08:14:05;;;;;;;16.73;6.95;;;;;;;32.11;40.69;98937.41;5071163;28;20438;-43
2022/08/22 08:16:40;;;;;;;12.35;6.30;;;;;;;32.70;39.17;98946.22;5070862;28;20134;-45
2022/08/22 08:19:09;;;;;;;11.25;6.30;;;;;;;33.04;38.18;98947.09;5070678;28;20044;-44
2022/08/22 08:21:48;;;;;;;8.07;6.22;;;;;;;33.28;38.56;98948.59;5069767;28;20035;-46
2022/08/22 08:24:20;;;;;;;9.02;5.80;;;;;;;34.23;37.27;98945.66;5071472;28;20063;-44
2022/08/22 08:29:37;;;;;;;11.80;7.00;;;;;;;34.40;35.70;98927.63;5072361;28;20055;-44
2022/08/22 08:32:08;;;;;;;12.05;7.10;;;;;;;33.64;36.56;98938.00;5072249;28;20035;-43
2022/08/22 08:34:37;;;;;;;9.90;6.80;;;;;;;33.84;36.89;98935.03;5072420;28;20443;-42
2022/08/22 08:37:26;;;;;;;8.30;7.22;;;;;;;33.80;36.59;98937.75;5072553;28;20156;-43
2022/08/22 08:39:56;;;;;;;12.27;7.35;;;;;;;33.66;36.97;98929.34;5065540;28;20173;-42
2022/08/22 08:46:23;;;;;;;12.10;7.70;;;;;;;34.47;36.49;98925.72;5072297;28;20555;-43
2022/08/22 08:49:08;;;;;;;11.48;8.43;;;;;;;34.91;35.92;98918.50;5072147;28;20031;-43
2022/08/22 08:51:49;;;;;;;14.02;7.60;;;;;;;35.34;34.77;98921.47;5072238;28;20048;-45
2022/08/22 08:54:35;;;;;;;12.35;7.70;;;;;;;35.26;34.64;98916.31;5072075;28;20057;-45
2022/08/22 08:57:19;;;;;;;13.18;8.15;;;;;;;35.07;35.83;98920.94;5071862;28;20025;-46
2022/08/22 09:00:08;;;;;;;11.40;8.75;;;;;;;34.38;35.73;98914.22;5071740;28;20025;-46
2022/08/22 09:02:45;;;;;;;10.53;9.23;;;;;;;34.94;34.86;98909.44;5072261;28;20032;-45
2022/08/22 09:05:27;;;;;;;13.35;9.80;;;;;;;34.08;35.95;98906.06;5071435;28;20082;-44
2022/08/22 09:08:21;;;;;;;14.77;10.63;;;;;;;33.71;37.00;98909.69;5070811;28;20518;-42
2022/08/22 09:11:18;;;;;;;14.80;11.05;;;;;;;33.89;36.60;98918.13;5070621;28;20035;-43
2022/08/22 09:14:07;;;;;;;11.82;9.68;;;;;;;34.05;36.01;98904.88;5071331;28;20044;-42
2022/08/22 09:16:33;;;;;;;12.00;10.43;;;;;;;33.10;37.56;98912.53;5071216;28;20040;-45
2022/08/22 09:19:07;;;;;;;13.80;11.13;;;;;;;32.37;40.25;98906.38;5071115;28;20032;-44
2022/08/22 09:22:06;;;;;;;17.15;12.48;;;;;;;31.53;41.37;98900.63;5071220;28;20024;-45
2022/08/22 09:25:09;;;;;;;14.85;12.38;;;;;;;31.91;40.91;98898.94;5071201;28;20017;-43
2022/08/22 09:28:10;;;;;;;15.68;11.85;;;;;;;31.90;40.43;98889.09;5071424;28;20024;-44
2022/08/22 09:30:45;;;;;;;;;;;;;;;32.37;40.04;98889.06;5055099;28;20190;-42
2022/08/22 09:33:16;;;;;;;15.65;12.60;;;;;;;32.61;39.68;98898.88;5071053;28;19931;-43
2022/08/22 09:36:05;;;;;;;15.55;12.50;;;;;;;31.83;39.95;98891.72;5071272;28;20020;-44
2022/08/22 09:39:12;;;;;;;15.57;12.93;;;;;;;32.28;39.99;98892.88;5070940;28;20025;-45
2022/08/22 09:42:00;;;;;;;15.73;13.10;;;;;;;32.54;38.41;98894.84;5070702;28;20028;-43
2022/08/22 09:44:58;;;;;;;17.90;13.45;;;;;;;31.76;39.11;98892.41;5070920;28;20144;-43
2022/08/22 09:47:38;;;;;;;15.68;13.25;;;;;;;30.74;41.36;98890.75;5071036;28;20020;-45
2022/08/22 09:50:36;;;;;;;14.55;12.98;;;;;;;31.36;40.65;98885.34;5070280;28;20027;-45
2022/08/22 09:53:32;;;;;;;17.83;13.38;;;;;;;31.36;40.70;98873.59;5056793;28;20458;-43
2022/08/22 09:56:11;;;;;;;17.38;12.95;;;;;;;31.69;40.31;98878.50;5070888;28;20099;-46
2022/08/22 09:58:44;;;;;;;16.60;13.10;;;;;;;32.00;40.11;98867.63;5070740;28;20044;-44
2022/08/22 10:01:28;;;;;;;16.13;13.00;;;;;;;32.54;38.74;98869.28;5070666;28;20051;-44
2022/08/22 10:04:13;;;;;;;16.40;13.27;;;;;;;33.09;38.31;98875.13;5070661;28;20107;-44
2022/08/22 10:07:08;;;;;;;14.35;12.27;;;;;;;32.86;38.92;98874.41;5070203;28;20076;-42
2022/08/22 10:10:11;;;;;;;15.27;11.65;;;;;;;32.69;37.93;98868.31;5070198;28;20030;-46
2022/08/22 10:12:50;;;;;;;15.20;12.80;;;;;;;32.16;39.13;98868.31;5070193;28;20503;-45
2022/08/22 10:15:22;;;;;;;16.70;13.50;;;;;;;32.50;39.10;98865.66;5070206;28;20419;-43
2022/08/22 10:18:08;;;;;;;15.68;12.45;;;;;;;32.92;39.22;98859.97;5070317;28;20043;-42
2022/08/22 10:20:54;;;;;;;18.27;14.00;;;;;;;32.77;38.58;98876.66;5070263;28;20024;-44
2022/08/22 10:23:28;;;;;;;15.77;13.25;;;;;;;32.50;38.55;98873.91;5068942;28;20020;-43
2022/08/22 10:26:11;;;;;;;15.75;13.73;;;;;;;32.68;38.44;98871.44;5070124;28;20032;-45
2022/08/22 10:28:51;;;;;;;14.02;12.40;;;;;;;32.29;38.54;98866.94;5070090;28;20040;-43
2022/08/22 10:31:35;;;;;;;13.65;12.15;;;;;;;31.71;39.63;98858.91;5070285;28;20093;-43
2022/08/22 10:34:20;;;;;;;15.57;13.18;;;;;;;31.36;40.83;98860.63;5070160;28;20029;-46
2022/08/22 10:37:15;;;;;;;15.80;12.85;;;;;;;31.79;40.19;98860.59;5070039;28;20025;-43
2022/08/22 10:40:22;;;;;;;17.40;12.02;;;;;;;31.85;39.64;98856.38;5069942;28;20044;-44
2022/08/22 10:43:18;;;;;;;13.80;11.77;;;;;;;32.00;38.98;98854.66;5069911;28;20119;-43
2022/08/22 10:45:49;;;;;;;17.13;12.50;;;;;;;32.04;39.23;98861.03;5066440;28;20039;-44
2022/08/22 10:48:41;;;;;;;16.63;12.20;;;;;;;31.52;40.12;98860.53;5070077;28;20040;-45
2022/08/22 10:51:18;;;;;;;15.20;12.48;;;;;;;31.44;40.69;98863.50;5063691;28;20412;-46
2022/08/22 10:53:56;;;;;;;13.98;11.95;;;;;;;32.01;39.77;98847.22;5050391;28;20025;-45
2022/08/22 10:56:33;;;;;;;15.68;11.60;;;;;;;31.21;41.93;98860.72;5040211;28;20035;-46
2022/08/22 10:59:27;;;;;;;18.30;12.13;;;;;;;30.77;43.10;98846.09;5048214;28;20029;-46
2022/08/22 11:02:33;;;;;;;13.15;11.10;;;;;;;30.90;42.19;98849.53;5051101;28;20028;-47
2022/08/22 11:05:12;;;;;;;15.70;11.63;;;;;;;31.74;40.87;98855.44;5049835;28;20476;-45
2022/08/22 11:07:44;;;;;;;14.50;11.40;;;;;;;31.45;41.36;98852.13;5049269;28;20108;-45
2022/08/22 11:11:06;;;;;;;15.82;11.05;;;;;;;31.17;41.95;98847.72;5047884;28;20115;-46
2022/08/22 11:14:08;;;;;;;13.57;10.20;;;;;;;31.18;42.08;98849.28;5024893;28;20052;-46
2022/08/22 11:17:11;;;;;;;13.02;10.82;;;;;;;31.89;40.39;98851.75;5022759;28;20072;-45
2022/08/22 11:19:51;;;;;;;13.05;10.82;;;;;;;31.74;41.56;98845.22;5046998;28;20021;-44
2022/08/22 11:22:32;;;;;;;14.00;10.30;;;;;;;31.53;41.52;98836.63;5046841;28;20032;-46
2022/08/22 11:25:39;;;;;;;13.15;10.18;;;;;;;31.49;40.95;98842.03;5047297;28;20492;-44
2022/08/22 11:28:14;;;;;;;13.52;10.18;;;;;;;31.24;41.26;98836.03;5036324;28;20037;-45
2022/08/22 11:31:05;;;;;;;12.32;10.50;;;;;;;31.58;40.97;98828.03;5047363;28;20110;-44
2022/08/22 11:33:36;;;;;;;13.18;10.68;;;;;;;30.96;42.11;98825.31;5049721;28;20013;-45
2022/08/22 11:36:08;;;;;;;13.85;10.35;;;;;;;30.54;43.94;98828.72;5053242;28;20098;-46
2022/08/22 11:39:05;;;;;;;12.95;10.18;;;;;;;30.98;43.92;98823.78;5053049;28;20048;-46
2022/08/22 11:41:45;;;;;;;12.43;10.13;;;;;;;31.36;43.41;98824.09;5053281;28;20021;-46
2022/08/22 11:44:37;;;;;;;12.18;10.25;;;;;;;31.84;41.12;98824.56;5053439;28;20024;-44
2022/08/22 11:47:10;;;;;;;12.75;9.93;;;;;;;30.96;42.10;98823.38;5053256;28;20503;-44
2022/08/22 11:49:44;;;;;;;13.23;9.55;;;;;;;31.01;43.02;98822.25;5052761;28;20021;-44
2022/08/22 11:52:18;;;;;;;11.48;9.70;;;;;;;31.18;42.28;98824.56;5053214;28;20114;-46
2022/08/22 11:55:15;;;;;;;11.68;9.55;;;;;;;31.45;42.19;98821.91;5052869;28;20025;-43
2022/08/22 11:58:34;;;;;;;15.57;11.88;;;;;;;31.80;42.90;98829.22;5047320;28;20072;-43
2022/08/22 12:01:25;;;;;;;15.90;12.65;;;;;;;31.48;44.49;98821.19;5050882;28;20087;-43
2022/08/22 12:04:05;;;;;;;16.15;13.35;;;;;;;31.47;44.33;98825.13;5053094;28;20114;-44
2022/08/22 12:06:42;;;;;;;15.20;12.43;;;;;;;31.63;44.30;98821.47;5052799;28;20174;-45
2022/08/22 12:09:07;;;;;;;17.52;12.65;;;;;;;31.68;44.40;98826.63;5052507;28;20041;-44
2022/08/22 12:12:05;;;;;;;17.40;12.45;;;;;;;31.75;44.46;98824.00;5053017;28;20033;-44
2022/08/22 12:14:56;;;;;;;13.60;10.60;;;;;;;31.43;45.18;98826.19;5041162;28;20122;-43
2022/08/22 12:17:37;;;;;;;14.32;10.45;;;;;;;31.45;45.11;98832.88;5047730;28;20094;-45
2022/08/22 12:20:21;;;;;;;17.08;11.13;;;;;;;31.54;44.33;98835.44;5052536;28;20051;-45
2022/08/22 12:23:02;;;;;;;15.15;11.43;;;;;;;31.65;43.90;98843.88;5052583;28;20500;-43
2022/08/22 12:25:51;;;;;;;17.63;11.05;;;;;;;31.46;44.48;98833.72;5052600;28;20035;-43
2022/08/22 12:28:38;;;;;;;12.23;10.85;;;;;;;31.32;45.13;98851.53;5052299;28;20033;-42
2022/08/22 12:31:25;;;;;;;18.92;11.55;;;;;;;31.22;45.70;98834.81;5052099;28;20031;-45
2022/08/22 12:34:08;;;;;;;14.65;11.23;;;;;;;31.41;45.12;98837.53;5052565;28;20461;-44
2022/08/22 12:36:47;;;;;;;15.25;10.85;;;;;;;32.07;43.60;98824.56;5052262;28;20103;-43
2022/08/22 12:39:26;;;;;;;;;;;;;;;31.60;45.21;98819.44;5052243;28;20032;-43
2022/08/22 12:42:09;;;;;;;13.05;10.18;;;;;;;31.41;45.54;98821.03;5052010;28;19908;-42
2022/08/22 12:45:11;;;;;;;12.90;10.23;;;;;;;31.33;45.97;98817.38;5052192;28;20029;-44